sensor_id;sensor_type;location;lat;lon;timestamp;temperature;humidity
74296;SHT30;62690;48.420;-4.512;2022-08-19T10:39:07;20.52;79.66
74296;SHT30;62690;48.420;-4.512;2022-08-19T10:41:36;20.71;77.84
74296;SHT30;62690;48.420;-4.512;2022-08-19T10:44:05;20.87;77.10
74296;SHT30;62690;48.420;-4.512;2022-08-19T10:46:32;20.95;75.42
74296;SHT30;62690;48.420;-4.512;2022-08-19T10:48:59;21.03;76.16
74296;SHT30;62690;48.420;-4.512;2022-08-19T10:51:25;21.09;75.63
74296;SHT30;62690;48.420;-4.512;2022-08-19T10:54:10;21.16;75.86
74296;SHT30;62690;48.420;-4.512;2022-08-19T10:56:35;21.26;75.39
74296;SHT30;62690;48.420;-4.512;2022-08-19T10:59:28;21.33;76.19
74296;SHT30;62690;48.420;-4.512;2022-08-19T11:02:04;21.33;76.33
74296;SHT30;62690;48.420;-4.512;2022-08-19T11:04:30;21.38;76.28
74296;SHT30;62690;48.420;-4.512;2022-08-19T11:06:57;21.43;75.91
74296;SHT30;62690;48.420;-4.512;2022-08-19T11:09:24;21.45;75.37
74296;SHT30;62690;48.420;-4.512;2022-08-19T11:11:50;21.49;75.76
74296;SHT30;62690;48.420;-4.512;2022-08-19T11:14:17;21.53;75.85
74296;SHT30;62690;48.420;-4.512;2022-08-19T11:16:47;21.59;74.52
74296;SHT30;62690;48.420;-4.512;2022-08-19T11:19:13;21.63;74.39
74296;SHT30;62690;48.420;-4.512;2022-08-19T11:21:43;21.69;74.47
74296;SHT30;62690;48.420;-4.512;2022-08-19T11:24:18;21.71;74.48
74296;SHT30;62690;48.420;-4.512;2022-08-19T11:26:46;21.84;73.58
74296;SHT30;62690;48.420;-4.512;2022-08-19T11:29:15;21.87;70.39
74296;SHT30;62690;48.420;-4.512;2022-08-19T11:31:43;21.96;71.42
74296;SHT30;62690;48.420;-4.512;2022-08-19T11:34:12;22.02;71.92
74296;SHT30;62690;48.420;-4.512;2022-08-19T11:36:40;22.09;72.27
74296;SHT30;62690;48.420;-4.512;2022-08-19T11:39:07;22.17;72.53
74296;SHT30;62690;48.420;-4.512;2022-08-19T11:41:33;22.12;67.41
74296;SHT30;62690;48.420;-4.512;2022-08-19T11:43:59;22.21;68.87
74296;SHT30;62690;48.420;-4.512;2022-08-19T11:46:26;22.24;69.70
74296;SHT30;62690;48.420;-4.512;2022-08-19T11:48:54;22.29;67.59
74296;SHT30;62690;48.420;-4.512;2022-08-19T11:51:22;22.31;66.03
74296;SHT30;62690;48.420;-4.512;2022-08-19T11:53:50;22.34;66.53
74296;SHT30;62690;48.420;-4.512;2022-08-19T11:56:17;22.39;67.14
74296;SHT30;62690;48.420;-4.512;2022-08-19T11:58:46;22.48;66.31
74296;SHT30;62690;48.420;-4.512;2022-08-19T12:01:14;22.53;65.63
74296;SHT30;62690;48.420;-4.512;2022-08-19T12:03:41;22.59;65.75
74296;SHT30;62690;48.420;-4.512;2022-08-19T12:06:10;22.70;66.26
74296;SHT30;62690;48.420;-4.512;2022-08-19T12:08:38;22.79;66.57
74296;SHT30;62690;48.420;-4.512;2022-08-19T12:11:04;22.86;66.97
74296;SHT30;62690;48.420;-4.512;2022-08-19T12:13:33;22.89;64.12
74296;SHT30;62690;48.420;-4.512;2022-08-19T12:15:59;22.93;64.47
74296;SHT30;62690;48.420;-4.512;2022-08-19T12:18:24;23.03;65.61
74296;SHT30;62690;48.420;-4.512;2022-08-19T12:20:51;23.17;66.05
74296;SHT30;62690;48.420;-4.512;2022-08-19T12:23:16;23.28;64.96
74296;SHT30;62690;48.420;-4.512;2022-08-19T12:25:47;23.43;64.53
74296;SHT30;62690;48.420;-4.512;2022-08-19T12:28:25;23.55;63.32
74296;SHT30;62690;48.420;-4.512;2022-08-19T12:30:51;23.71;62.90
74296;SHT30;62690;48.420;-4.512;2022-08-19T12:33:20;23.81;60.75
74296;SHT30;62690;48.420;-4.512;2022-08-19T12:35:49;23.88;60.40
74296;SHT30;62690;48.420;-4.512;2022-08-19T12:38:18;23.89;59.79
74296;SHT30;62690;48.420;-4.512;2022-08-19T12:40:47;23.94;60.86
74296;SHT30;62690;48.420;-4.512;2022-08-19T12:43:14;23.95;58.05
74296;SHT30;62690;48.420;-4.512;2022-08-19T12:45:41;23.95;58.34
74296;SHT30;62690;48.420;-4.512;2022-08-19T12:48:08;24.02;60.16
74296;SHT30;62690;48.420;-4.512;2022-08-19T12:50:33;24.15;59.76
74296;SHT30;62690;48.420;-4.512;2022-08-19T12:52:59;24.28;60.77
74296;SHT30;62690;48.420;-4.512;2022-08-19T12:55:24;24.36;56.87
74296;SHT30;62690;48.420;-4.512;2022-08-19T12:57:50;24.49;57.74
74296;SHT30;62690;48.420;-4.512;2022-08-19T13:00:18;24.61;58.68
74296;SHT30;62690;48.420;-4.512;2022-08-19T13:02:47;24.73;57.30
74296;SHT30;62690;48.420;-4.512;2022-08-19T13:05:16;24.81;53.30
74296;SHT30;62690;48.420;-4.512;2022-08-19T13:07:44;24.95;54.63
74296;SHT30;62690;48.420;-4.512;2022-08-19T13:10:12;25.04;53.37
74296;SHT30;62690;48.420;-4.512;2022-08-19T13:12:41;25.11;53.87
74296;SHT30;62690;48.420;-4.512;2022-08-19T13:15:06;25.22;52.63
74296;SHT30;62690;48.420;-4.512;2022-08-19T13:17:34;25.34;52.22
74296;SHT30;62690;48.420;-4.512;2022-08-19T13:19:59;25.50;50.76
74296;SHT30;62690;48.420;-4.512;2022-08-19T13:22:24;25.62;46.99
74296;SHT30;62690;48.420;-4.512;2022-08-19T13:24:50;25.73;47.67
74296;SHT30;62690;48.420;-4.512;2022-08-19T13:27:16;25.85;46.94
74296;SHT30;62690;48.420;-4.512;2022-08-19T13:29:41;25.97;50.04
74296;SHT30;62690;48.420;-4.512;2022-08-19T13:32:26;26.17;48.40
74296;SHT30;62690;48.420;-4.512;2022-08-19T13:35:09;26.36;47.78
74296;SHT30;62690;48.420;-4.512;2022-08-19T13:37:35;26.47;45.55
74296;SHT30;62690;48.420;-4.512;2022-08-19T13:40:10;26.59;44.30
74296;SHT30;62690;48.420;-4.512;2022-08-19T13:42:42;26.71;46.52
74296;SHT30;62690;48.420;-4.512;2022-08-19T13:45:09;26.87;45.52
74296;SHT30;62690;48.420;-4.512;2022-08-19T13:47:36;27.03;44.64
74296;SHT30;62690;48.420;-4.512;2022-08-19T13:50:12;27.25;45.85
74296;SHT30;62690;48.420;-4.512;2022-08-19T13:52:39;27.50;43.96
74296;SHT30;62690;48.420;-4.512;2022-08-19T13:55:05;27.74;45.66
74296;SHT30;62690;48.420;-4.512;2022-08-19T13:57:31;27.97;45.96
74296;SHT30;62690;48.420;-4.512;2022-08-19T14:00:00;28.22;37.12
74296;SHT30;62690;48.420;-4.512;2022-08-19T14:02:26;28.38;38.24
74296;SHT30;62690;48.420;-4.512;2022-08-19T14:04:51;28.53;38.22
74296;SHT30;62690;48.420;-4.512;2022-08-19T14:07:17;28.75;38.85
74296;SHT30;62690;48.420;-4.512;2022-08-19T14:09:42;28.90;36.82
74296;SHT30;62690;48.420;-4.512;2022-08-19T14:12:08;29.07;41.38
74296;SHT30;62690;48.420;-4.512;2022-08-19T14:14:37;29.28;41.63
74296;SHT30;62690;48.420;-4.512;2022-08-19T14:17:07;29.50;38.60
74296;SHT30;62690;48.420;-4.512;2022-08-19T14:19:32;29.68;39.62
74296;SHT30;62690;48.420;-4.512;2022-08-19T14:21:58;29.88;39.81
74296;SHT30;62690;48.420;-4.512;2022-08-19T14:24:23;30.09;39.86
74296;SHT30;62690;48.420;-4.512;2022-08-19T14:26:49;30.29;40.77
74296;SHT30;62690;48.420;-4.512;2022-08-19T14:29:15;30.50;35.37
74296;SHT30;62690;48.420;-4.512;2022-08-19T14:31:41;30.67;37.28
74296;SHT30;62690;48.420;-4.512;2022-08-19T14:34:08;30.81;36.12
74296;SHT30;62690;48.420;-4.512;2022-08-19T14:36:35;30.95;36.90
74296;SHT30;62690;48.420;-4.512;2022-08-19T14:39:01;31.12;37.95
74296;SHT30;62690;48.420;-4.512;2022-08-19T14:41:27;31.34;38.11
74296;SHT30;62690;48.420;-4.512;2022-08-19T14:43:54;31.56;36.20
74296;SHT30;62690;48.420;-4.512;2022-08-19T14:46:23;31.79;36.21
74296;SHT30;62690;48.420;-4.512;2022-08-19T14:48:49;32.00;35.55
74296;SHT30;62690;48.420;-4.512;2022-08-19T14:51:15;32.26;36.58
74296;SHT30;62690;48.420;-4.512;2022-08-19T14:53:41;32.48;34.37
74296;SHT30;62690;48.420;-4.512;2022-08-19T14:56:09;32.71;33.95
74296;SHT30;62690;48.420;-4.512;2022-08-19T14:58:35;32.89;32.40
74296;SHT30;62690;48.420;-4.512;2022-08-19T15:01:00;33.11;34.36
74296;SHT30;62690;48.420;-4.512;2022-08-19T15:03:27;33.21;32.19
74296;SHT30;62690;48.420;-4.512;2022-08-19T15:05:53;33.35;33.69
74296;SHT30;62690;48.420;-4.512;2022-08-19T15:08:18;33.43;31.65
74296;SHT30;62690;48.420;-4.512;2022-08-19T15:10:43;33.52;32.27
74296;SHT30;62690;48.420;-4.512;2022-08-19T15:13:09;33.57;32.77
74296;SHT30;62690;48.420;-4.512;2022-08-19T15:15:35;33.76;33.22
74296;SHT30;62690;48.420;-4.512;2022-08-19T15:18:00;33.98;32.45
74296;SHT30;62690;48.420;-4.512;2022-08-19T15:20:28;34.21;32.67
74296;SHT30;62690;48.420;-4.512;2022-08-19T15:22:54;34.45;33.05
74296;SHT30;62690;48.420;-4.512;2022-08-19T15:25:19;34.68;30.95
74296;SHT30;62690;48.420;-4.512;2022-08-19T15:27:45;34.72;29.70
74296;SHT30;62690;48.420;-4.512;2022-08-19T15:30:11;34.81;30.62
74296;SHT30;62690;48.420;-4.512;2022-08-19T15:32:37;34.92;31.87
74296;SHT30;62690;48.420;-4.512;2022-08-19T15:35:05;35.10;31.24
74296;SHT30;62690;48.420;-4.512;2022-08-19T15:37:31;35.37;31.70
74296;SHT30;62690;48.420;-4.512;2022-08-19T15:39:57;35.67;30.21
74296;SHT30;62690;48.420;-4.512;2022-08-19T15:42:22;35.90;28.75
74296;SHT30;62690;48.420;-4.512;2022-08-19T15:44:47;36.09;28.57
74296;SHT30;62690;48.420;-4.512;2022-08-19T15:47:13;36.20;27.52
74296;SHT30;62690;48.420;-4.512;2022-08-19T15:49:39;36.31;27.90
74296;SHT30;62690;48.420;-4.512;2022-08-19T15:52:05;36.36;29.80
74296;SHT30;62690;48.420;-4.512;2022-08-19T15:54:30;36.48;28.12
74296;SHT30;62690;48.420;-4.512;2022-08-19T15:56:56;36.65;29.33
74296;SHT30;62690;48.420;-4.512;2022-08-19T15:59:40;36.83;25.57
74296;SHT30;62690;48.420;-4.512;2022-08-19T16:02:26;36.82;27.89
74296;SHT30;62690;48.420;-4.512;2022-08-19T16:05:13;36.87;27.82
74296;SHT30;62690;48.420;-4.512;2022-08-19T16:07:57;36.90;28.22
74296;SHT30;62690;48.420;-4.512;2022-08-19T16:10:23;37.03;26.17
74296;SHT30;62690;48.420;-4.512;2022-08-19T16:12:49;37.03;25.40
74296;SHT30;62690;48.420;-4.512;2022-08-19T16:15:14;36.94;26.87
74296;SHT30;62690;48.420;-4.512;2022-08-19T16:17:41;37.11;27.23
74296;SHT30;62690;48.420;-4.512;2022-08-19T16:20:07;37.38;25.40
74296;SHT30;62690;48.420;-4.512;2022-08-19T16:22:33;37.57;25.28
74296;SHT30;62690;48.420;-4.512;2022-08-19T16:24:59;37.75;26.45
74296;SHT30;62690;48.420;-4.512;2022-08-19T16:27:25;37.91;26.53
74296;SHT30;62690;48.420;-4.512;2022-08-19T16:29:51;38.05;25.67
74296;SHT30;62690;48.420;-4.512;2022-08-19T16:32:17;38.29;26.74
74296;SHT30;62690;48.420;-4.512;2022-08-19T16:34:43;38.42;25.30
74296;SHT30;62690;48.420;-4.512;2022-08-19T16:37:09;38.60;25.67
74296;SHT30;62690;48.420;-4.512;2022-08-19T16:39:35;38.76;26.15
74296;SHT30;62690;48.420;-4.512;2022-08-19T16:42:01;38.96;25.85
74296;SHT30;62690;48.420;-4.512;2022-08-19T16:44:27;39.01;23.79
74296;SHT30;62690;48.420;-4.512;2022-08-19T16:46:53;38.98;23.63
74296;SHT30;62690;48.420;-4.512;2022-08-19T16:49:18;39.03;24.76
74296;SHT30;62690;48.420;-4.512;2022-08-19T16:51:44;39.15;25.36
74296;SHT30;62690;48.420;-4.512;2022-08-19T16:54:11;39.27;24.24
74296;SHT30;62690;48.420;-4.512;2022-08-19T16:56:36;39.44;24.96
74296;SHT30;62690;48.420;-4.512;2022-08-19T16:59:02;39.64;24.23
74296;SHT30;62690;48.420;-4.512;2022-08-19T17:01:28;39.76;24.17
74296;SHT30;62690;48.420;-4.512;2022-08-19T17:03:54;39.92;24.40
74296;SHT30;62690;48.420;-4.512;2022-08-19T17:06:22;40.06;23.47
74296;SHT30;62690;48.420;-4.512;2022-08-19T17:08:53;40.24;24.73
74296;SHT30;62690;48.420;-4.512;2022-08-19T17:11:20;40.41;23.03
74296;SHT30;62690;48.420;-4.512;2022-08-19T17:13:47;40.44;23.49
74296;SHT30;62690;48.420;-4.512;2022-08-19T17:16:14;40.53;24.75
74296;SHT30;62690;48.420;-4.512;2022-08-19T17:18:39;40.60;24.12
74296;SHT30;62690;48.420;-4.512;2022-08-19T17:21:05;40.68;23.11
74296;SHT30;62690;48.420;-4.512;2022-08-19T17:23:30;40.80;22.92
74296;SHT30;62690;48.420;-4.512;2022-08-19T17:25:57;40.81;23.03
74296;SHT30;62690;48.420;-4.512;2022-08-19T17:28:26;40.76;23.25
74296;SHT30;62690;48.420;-4.512;2022-08-19T17:30:52;40.76;24.02
74296;SHT30;62690;48.420;-4.512;2022-08-19T17:33:18;40.71;21.31
74296;SHT30;62690;48.420;-4.512;2022-08-19T17:35:44;40.57;22.13
74296;SHT30;62690;48.420;-4.512;2022-08-19T17:38:17;40.35;23.31
74296;SHT30;62690;48.420;-4.512;2022-08-19T17:40:43;40.33;23.69
74296;SHT30;62690;48.420;-4.512;2022-08-19T17:43:10;40.24;23.53
74296;SHT30;62690;48.420;-4.512;2022-08-19T17:45:38;40.24;22.43
74296;SHT30;62690;48.420;-4.512;2022-08-19T17:48:04;40.13;22.26
74296;SHT30;62690;48.420;-4.512;2022-08-19T17:50:30;39.76;23.53
74296;SHT30;62690;48.420;-4.512;2022-08-19T17:52:55;39.37;22.59
74296;SHT30;62690;48.420;-4.512;2022-08-19T17:55:21;39.06;23.75
74296;SHT30;62690;48.420;-4.512;2022-08-19T17:57:47;38.63;24.04
74296;SHT30;62690;48.420;-4.512;2022-08-19T18:00:13;38.16;23.98
74296;SHT30;62690;48.420;-4.512;2022-08-19T18:02:58;37.62;23.88
74296;SHT30;62690;48.420;-4.512;2022-08-19T18:05:30;37.20;25.59
74296;SHT30;62690;48.420;-4.512;2022-08-19T18:07:57;36.99;25.67
74296;SHT30;62690;48.420;-4.512;2022-08-19T18:10:25;36.84;26.26
74296;SHT30;62690;48.420;-4.512;2022-08-19T18:12:51;36.70;26.48
74296;SHT30;62690;48.420;-4.512;2022-08-19T18:15:18;36.65;26.13
74296;SHT30;62690;48.420;-4.512;2022-08-19T18:17:44;36.72;25.75
74296;SHT30;62690;48.420;-4.512;2022-08-19T18:20:12;36.79;25.77
74296;SHT30;62690;48.420;-4.512;2022-08-19T18:22:40;36.83;24.94
74296;SHT30;62690;48.420;-4.512;2022-08-19T18:25:27;36.84;25.76
74296;SHT30;62690;48.420;-4.512;2022-08-19T18:27:54;36.83;26.26
74296;SHT30;62690;48.420;-4.512;2022-08-19T18:30:22;36.79;26.03
74296;SHT30;62690;48.420;-4.512;2022-08-19T18:32:49;36.73;26.02
74296;SHT30;62690;48.420;-4.512;2022-08-19T18:35:23;36.66;26.14
74296;SHT30;62690;48.420;-4.512;2022-08-19T18:37:50;36.56;26.01
74296;SHT30;62690;48.420;-4.512;2022-08-19T18:40:18;36.48;25.79
74296;SHT30;62690;48.420;-4.512;2022-08-19T18:43:04;36.27;25.96
74296;SHT30;62690;48.420;-4.512;2022-08-19T18:45:36;36.02;26.53
74296;SHT30;62690;48.420;-4.512;2022-08-19T18:48:20;35.54;26.52
74296;SHT30;62690;48.420;-4.512;2022-08-19T18:51:04;35.09;27.23
74296;SHT30;62690;48.420;-4.512;2022-08-19T18:53:32;34.68;27.56
74296;SHT30;62690;48.420;-4.512;2022-08-19T18:55:57;34.27;28.63
74296;SHT30;62690;48.420;-4.512;2022-08-19T18:58:26;33.90;28.96
74296;SHT30;62690;48.420;-4.512;2022-08-19T19:00:57;33.55;29.22
74296;SHT30;62690;48.420;-4.512;2022-08-19T19:03:26;33.23;29.97
74296;SHT30;62690;48.420;-4.512;2022-08-19T19:05:55;32.94;30.14
74296;SHT30;62690;48.420;-4.512;2022-08-19T19:08:20;32.68;30.61
74296;SHT30;62690;48.420;-4.512;2022-08-19T19:10:46;32.43;31.19
74296;SHT30;62690;48.420;-4.512;2022-08-19T19:13:11;32.17;31.84
74296;SHT30;62690;48.420;-4.512;2022-08-19T19:15:41;31.94;31.60
74296;SHT30;62690;48.420;-4.512;2022-08-19T19:18:08;31.70;32.45
74296;SHT30;62690;48.420;-4.512;2022-08-19T19:20:39;31.48;32.97
74296;SHT30;62690;48.420;-4.512;2022-08-19T19:23:04;31.27;32.93
74296;SHT30;62690;48.420;-4.512;2022-08-19T19:25:30;31.05;33.40
74296;SHT30;62690;48.420;-4.512;2022-08-19T19:27:57;30.86;33.75
74296;SHT30;62690;48.420;-4.512;2022-08-19T19:30:22;30.67;34.08
74296;SHT30;62690;48.420;-4.512;2022-08-19T19:32:54;30.50;34.33
74296;SHT30;62690;48.420;-4.512;2022-08-19T19:35:20;30.33;34.92
74296;SHT30;62690;48.420;-4.512;2022-08-19T19:37:45;30.19;35.44
74296;SHT30;62690;48.420;-4.512;2022-08-19T19:40:17;30.06;35.49
74296;SHT30;62690;48.420;-4.512;2022-08-19T19:42:42;29.89;35.49
74296;SHT30;62690;48.420;-4.512;2022-08-19T19:45:07;29.81;35.88
74296;SHT30;62690;48.420;-4.512;2022-08-19T19:47:33;29.64;36.54
74296;SHT30;62690;48.420;-4.512;2022-08-19T19:49:59;29.53;36.46
74296;SHT30;62690;48.420;-4.512;2022-08-19T19:52:26;29.38;36.73
